sensor_id;sensor_type;location;lat;lon;timestamp;P1;durP1;ratioP1;P2;durP2;ratioP2
73911;SDS011;62248;49.958;8.448;2023-04-24T09:44:13;4.47;;;1.42;;
73911;SDS011;62248;49.958;8.448;2023-04-24T09:46:41;4.43;;;1.33;;
73911;SDS011;62248;49.958;8.448;2023-04-24T09:49:08;5.13;;;1.42;;
73911;SDS011;62248;49.958;8.448;2023-04-24T09:51:37;4.22;;;1.92;;
73911;SDS011;62248;49.958;8.448;2023-04-24T09:54:04;6.15;;;1.52;;
73911;SDS011;62248;49.958;8.448;2023-04-24T09:56:36;4.40;;;1.40;;
73911;SDS011;62248;49.958;8.448;2023-04-24T09:59:09;5.20;;;1.35;;
73911;SDS011;62248;49.958;8.448;2023-04-24T10:01:35;4.95;;;1.52;;
73911;SDS011;62248;49.958;8.448;2023-04-24T10:04:03;4.28;;;1.13;;
73911;SDS011;62248;49.958;8.448;2023-04-24T10:06:34;3.75;;;1.10;;
73911;SDS011;62248;49.958;8.448;2023-04-24T10:09:01;4.55;;;1.45;;
73911;SDS011;62248;49.958;8.448;2023-04-24T10:11:28;3.90;;;1.10;;
73911;SDS011;62248;49.958;8.448;2023-04-24T10:13:55;3.65;;;1.45;;
73911;SDS011;62248;49.958;8.448;2023-04-24T10:16:22;3.13;;;1.17;;
73911;SDS011;62248;49.958;8.448;2023-04-24T10:18:49;4.03;;;1.10;;
73911;SDS011;62248;49.958;8.448;2023-04-24T10:21:16;3.35;;;1.10;;
73911;SDS011;62248;49.958;8.448;2023-04-24T10:23:42;4.53;;;1.38;;
73911;SDS011;62248;49.958;8.448;2023-04-24T10:26:12;2.92;;;1.30;;
73911;SDS011;62248;49.958;8.448;2023-04-24T10:28:44;3.70;;;1.20;;
73911;SDS011;62248;49.958;8.448;2023-04-24T10:31:11;3.35;;;1.15;;
73911;SDS011;62248;49.958;8.448;2023-04-24T10:33:39;2.95;;;1.10;;
73911;SDS011;62248;49.958;8.448;2023-04-24T10:36:06;3.08;;;1.02;;
73911;SDS011;62248;49.958;8.448;2023-04-24T10:38:34;4.15;;;1.70;;
73911;SDS011;62248;49.958;8.448;2023-04-24T10:41:08;4.47;;;1.40;;
73911;SDS011;62248;49.958;8.448;2023-04-24T10:43:34;5.32;;;1.40;;
73911;SDS011;62248;49.958;8.448;2023-04-24T10:46:02;2.92;;;1.13;;
73911;SDS011;62248;49.958;8.448;2023-04-24T10:48:30;5.00;;;1.27;;
73911;SDS011;62248;49.958;8.448;2023-04-24T10:50:57;4.15;;;1.35;;
73911;SDS011;62248;49.958;8.448;2023-04-24T10:53:27;4.20;;;1.42;;
73911;SDS011;62248;49.958;8.448;2023-04-24T11:21:49;9.35;;;1.70;;
73911;SDS011;62248;49.958;8.448;2023-04-24T11:24:31;5.28;;;1.60;;
73911;SDS011;62248;49.958;8.448;2023-04-24T11:29:39;6.70;;;1.70;;
73911;SDS011;62248;49.958;8.448;2023-04-24T11:35:03;5.18;;;2.03;;
73911;SDS011;62248;49.958;8.448;2023-04-24T11:37:34;8.27;;;2.17;;
73911;SDS011;62248;49.958;8.448;2023-04-24T11:40:02;9.93;;;2.13;;
73911;SDS011;62248;49.958;8.448;2023-04-24T11:42:39;7.53;;;2.17;;
73911;SDS011;62248;49.958;8.448;2023-04-24T11:45:10;6.07;;;1.77;;
73911;SDS011;62248;49.958;8.448;2023-04-24T11:47:38;6.47;;;2.20;;
73911;SDS011;62248;49.958;8.448;2023-04-24T11:50:06;5.43;;;2.20;;
73911;SDS011;62248;49.958;8.448;2023-04-24T11:52:38;10.20;;;1.80;;
73911;SDS011;62248;49.958;8.448;2023-04-24T11:55:06;6.40;;;2.05;;
73911;SDS011;62248;49.958;8.448;2023-04-24T11:57:34;7.53;;;2.00;;
73911;SDS011;62248;49.958;8.448;2023-04-24T12:00:02;7.20;;;1.98;;
73911;SDS011;62248;49.958;8.448;2023-04-24T12:02:33;4.53;;;1.88;;
73911;SDS011;62248;49.958;8.448;2023-04-24T12:04:59;5.13;;;1.77;;
73911;SDS011;62248;49.958;8.448;2023-04-24T12:07:25;5.78;;;2.03;;
73911;SDS011;62248;49.958;8.448;2023-04-24T12:12:26;3.55;;;1.63;;
73911;SDS011;62248;49.958;8.448;2023-04-24T12:14:54;6.88;;;2.22;;
73911;SDS011;62248;49.958;8.448;2023-04-24T12:17:25;5.07;;;1.80;;
73911;SDS011;62248;49.958;8.448;2023-04-24T12:19:59;5.00;;;2.13;;
73911;SDS011;62248;49.958;8.448;2023-04-24T12:25:18;5.95;;;1.88;;
73911;SDS011;62248;49.958;8.448;2023-04-24T12:27:45;5.30;;;1.90;;
73911;SDS011;62248;49.958;8.448;2023-04-24T12:30:16;4.28;;;1.42;;
73911;SDS011;62248;49.958;8.448;2023-04-24T12:32:44;5.78;;;1.60;;
73911;SDS011;62248;49.958;8.448;2023-04-24T12:35:12;4.93;;;1.83;;
73911;SDS011;62248;49.958;8.448;2023-04-24T12:37:41;4.88;;;1.73;;
73911;SDS011;62248;49.958;8.448;2023-04-24T12:40:08;5.03;;;1.90;;
73911;SDS011;62248;49.958;8.448;2023-04-24T12:42:41;6.28;;;1.83;;
73911;SDS011;62248;49.958;8.448;2023-04-24T12:45:09;6.20;;;1.75;;
73911;SDS011;62248;49.958;8.448;2023-04-24T12:47:37;4.60;;;1.90;;
73911;SDS011;62248;49.958;8.448;2023-04-24T12:50:04;4.47;;;1.48;;
73911;SDS011;62248;49.958;8.448;2023-04-24T12:52:31;4.50;;;1.80;;
73911;SDS011;62248;49.958;8.448;2023-04-24T12:54:58;4.75;;;1.98;;
73911;SDS011;62248;49.958;8.448;2023-04-24T12:57:25;3.45;;;1.40;;
73911;SDS011;62248;49.958;8.448;2023-04-24T12:59:57;5.28;;;1.67;;
73911;SDS011;62248;49.958;8.448;2023-04-24T13:02:32;4.32;;;1.83;;
73911;SDS011;62248;49.958;8.448;2023-04-24T13:04:59;4.75;;;1.60;;
73911;SDS011;62248;49.958;8.448;2023-04-24T13:07:26;5.03;;;1.70;;
73911;SDS011;62248;49.958;8.448;2023-04-24T13:09:53;5.35;;;1.80;;
73911;SDS011;62248;49.958;8.448;2023-04-24T13:12:21;5.93;;;2.00;;
73911;SDS011;62248;49.958;8.448;2023-04-24T13:14:49;5.10;;;1.88;;
73911;SDS011;62248;49.958;8.448;2023-04-24T13:17:15;6.30;;;2.30;;
73911;SDS011;62248;49.958;8.448;2023-04-24T13:19:42;5.85;;;1.85;;
73911;SDS011;62248;49.958;8.448;2023-04-24T13:22:10;8.55;;;1.83;;
73911;SDS011;62248;49.958;8.448;2023-04-24T13:24:37;4.70;;;1.90;;
73911;SDS011;62248;49.958;8.448;2023-04-24T13:27:05;5.20;;;1.67;;
73911;SDS011;62248;49.958;8.448;2023-04-24T13:29:32;5.13;;;1.70;;
73911;SDS011;62248;49.958;8.448;2023-04-24T13:31:58;5.10;;;1.67;;
73911;SDS011;62248;49.958;8.448;2023-04-24T13:34:25;4.90;;;1.88;;
73911;SDS011;62248;49.958;8.448;2023-04-24T13:36:52;3.65;;;1.50;;
73911;SDS011;62248;49.958;8.448;2023-04-24T13:39:20;3.92;;;1.60;;
73911;SDS011;62248;49.958;8.448;2023-04-24T13:41:47;6.20;;;1.92;;
73911;SDS011;62248;49.958;8.448;2023-04-24T13:44:14;5.22;;;1.75;;
73911;SDS011;62248;49.958;8.448;2023-04-24T13:46:41;4.32;;;1.65;;
73911;SDS011;62248;49.958;8.448;2023-04-24T13:49:10;3.97;;;1.60;;
73911;SDS011;62248;49.958;8.448;2023-04-24T13:51:37;6.35;;;1.70;;
73911;SDS011;62248;49.958;8.448;2023-04-24T13:54:03;4.18;;;1.83;;
73911;SDS011;62248;49.958;8.448;2023-04-24T13:56:30;2.85;;;1.40;;
73911;SDS011;62248;49.958;8.448;2023-04-24T13:58:56;3.72;;;1.40;;
73911;SDS011;62248;49.958;8.448;2023-04-24T14:01:22;5.15;;;1.50;;
73911;SDS011;62248;49.958;8.448;2023-04-24T14:03:52;3.22;;;1.30;;
73911;SDS011;62248;49.958;8.448;2023-04-24T14:06:19;4.40;;;1.55;;
73911;SDS011;62248;49.958;8.448;2023-04-24T14:08:46;3.75;;;1.55;;
73911;SDS011;62248;49.958;8.448;2023-04-24T14:11:13;4.70;;;1.73;;
73911;SDS011;62248;49.958;8.448;2023-04-24T14:13:41;3.97;;;1.50;;
73911;SDS011;62248;49.958;8.448;2023-04-24T14:16:07;6.22;;;1.50;;
73911;SDS011;62248;49.958;8.448;2023-04-24T14:18:34;4.15;;;1.67;;
73911;SDS011;62248;49.958;8.448;2023-04-24T14:21:01;3.80;;;1.60;;
73911;SDS011;62248;49.958;8.448;2023-04-24T14:23:28;4.22;;;1.42;;
73911;SDS011;62248;49.958;8.448;2023-04-24T14:25:56;3.10;;;1.63;;
73911;SDS011;62248;49.958;8.448;2023-04-24T14:28:23;3.58;;;1.48;;
73911;SDS011;62248;49.958;8.448;2023-04-24T14:30:49;2.63;;;1.20;;
73911;SDS011;62248;49.958;8.448;2023-04-24T14:33:16;3.33;;;1.50;;
73911;SDS011;62248;49.958;8.448;2023-04-24T14:35:42;3.35;;;1.23;;
73911;SDS011;62248;49.958;8.448;2023-04-24T14:38:09;3.03;;;1.40;;
73911;SDS011;62248;49.958;8.448;2023-04-24T14:40:36;3.42;;;1.30;;
73911;SDS011;62248;49.958;8.448;2023-04-24T14:43:03;3.33;;;1.35;;
73911;SDS011;62248;49.958;8.448;2023-04-24T14:45:29;3.75;;;1.35;;
73911;SDS011;62248;49.958;8.448;2023-04-24T14:47:57;2.97;;;1.30;;
73911;SDS011;62248;49.958;8.448;2023-04-24T14:50:23;2.75;;;1.25;;
73911;SDS011;62248;49.958;8.448;2023-04-24T14:52:53;3.42;;;1.52;;
73911;SDS011;62248;49.958;8.448;2023-04-24T14:55:22;4.20;;;1.30;;
73911;SDS011;62248;49.958;8.448;2023-04-24T14:57:49;3.83;;;1.30;;
73911;SDS011;62248;49.958;8.448;2023-04-24T15:00:16;3.63;;;1.35;;
73911;SDS011;62248;49.958;8.448;2023-04-24T15:02:43;2.80;;;1.20;;
73911;SDS011;62248;49.958;8.448;2023-04-24T15:05:09;3.25;;;1.30;;
73911;SDS011;62248;49.958;8.448;2023-04-24T15:07:36;2.63;;;1.23;;
73911;SDS011;62248;49.958;8.448;2023-04-24T15:10:04;3.30;;;1.40;;
73911;SDS011;62248;49.958;8.448;2023-04-24T15:12:30;3.00;;;1.30;;
73911;SDS011;62248;49.958;8.448;2023-04-24T15:14:57;3.50;;;1.33;;
73911;SDS011;62248;49.958;8.448;2023-04-24T15:17:24;2.88;;;1.55;;
73911;SDS011;62248;49.958;8.448;2023-04-24T15:19:51;3.08;;;1.20;;
73911;SDS011;62248;49.958;8.448;2023-04-24T15:22:17;2.78;;;1.38;;
73911;SDS011;62248;49.958;8.448;2023-04-24T15:24:44;3.80;;;1.42;;
73911;SDS011;62248;49.958;8.448;2023-04-24T15:27:10;3.50;;;1.50;;
73911;SDS011;62248;49.958;8.448;2023-04-24T15:29:37;2.50;;;1.30;;
73911;SDS011;62248;49.958;8.448;2023-04-24T15:32:03;2.78;;;1.10;;
73911;SDS011;62248;49.958;8.448;2023-04-24T15:34:29;3.42;;;1.20;;
73911;SDS011;62248;49.958;8.448;2023-04-24T15:36:57;3.75;;;1.50;;
73911;SDS011;62248;49.958;8.448;2023-04-24T15:39:24;2.90;;;1.42;;
73911;SDS011;62248;49.958;8.448;2023-04-24T15:41:50;3.03;;;1.33;;
73911;SDS011;62248;49.958;8.448;2023-04-24T15:44:18;2.72;;;1.30;;
73911;SDS011;62248;49.958;8.448;2023-04-24T15:46:45;2.88;;;1.15;;
73911;SDS011;62248;49.958;8.448;2023-04-24T15:49:12;1.90;;;1.00;;
73911;SDS011;62248;49.958;8.448;2023-04-24T15:51:38;2.30;;;1.00;;
73911;SDS011;62248;49.958;8.448;2023-04-24T15:54:04;3.10;;;1.40;;
73911;SDS011;62248;49.958;8.448;2023-04-24T15:56:31;3.28;;;1.23;;
73911;SDS011;62248;49.958;8.448;2023-04-24T15:58:57;3.30;;;1.10;;
73911;SDS011;62248;49.958;8.448;2023-04-24T16:01:23;2.97;;;1.20;;
73911;SDS011;62248;49.958;8.448;2023-04-24T16:03:49;3.10;;;1.52;;
73911;SDS011;62248;49.958;8.448;2023-04-24T16:06:16;2.38;;;1.23;;
73911;SDS011;62248;49.958;8.448;2023-04-24T16:08:42;2.60;;;1.15;;
73911;SDS011;62248;49.958;8.448;2023-04-24T16:11:08;3.28;;;1.20;;
73911;SDS011;62248;49.958;8.448;2023-04-24T16:13:35;3.67;;;1.38;;
73911;SDS011;62248;49.958;8.448;2023-04-24T16:16:01;3.25;;;1.42;;
73911;SDS011;62248;49.958;8.448;2023-04-24T16:18:28;5.00;;;1.48;;
73911;SDS011;62248;49.958;8.448;2023-04-24T16:20:55;4.38;;;1.33;;
73911;SDS011;62248;49.958;8.448;2023-04-24T16:23:21;3.63;;;1.38;;
73911;SDS011;62248;49.958;8.448;2023-04-24T16:25:48;2.38;;;1.20;;
73911;SDS011;62248;49.958;8.448;2023-04-24T16:28:14;2.90;;;1.42;;
73911;SDS011;62248;49.958;8.448;2023-04-24T16:30:41;4.53;;;1.50;;
73911;SDS011;62248;49.958;8.448;2023-04-24T16:33:07;4.05;;;1.42;;
73911;SDS011;62248;49.958;8.448;2023-04-24T16:35:35;6.22;;;1.60;;
73911;SDS011;62248;49.958;8.448;2023-04-24T16:38:01;4.10;;;1.63;;
73911;SDS011;62248;49.958;8.448;2023-04-24T16:40:28;5.72;;;1.63;;
73911;SDS011;62248;49.958;8.448;2023-04-24T16:42:55;4.28;;;1.80;;
73911;SDS011;62248;49.958;8.448;2023-04-24T16:45:21;3.78;;;1.65;;
73911;SDS011;62248;49.958;8.448;2023-04-24T16:47:48;4.10;;;1.80;;
73911;SDS011;62248;49.958;8.448;2023-04-24T16:50:14;4.45;;;2.00;;
73911;SDS011;62248;49.958;8.448;2023-04-24T16:52:40;4.40;;;1.90;;
73911;SDS011;62248;49.958;8.448;2023-04-24T16:55:07;4.00;;;1.67;;
73911;SDS011;62248;49.958;8.448;2023-04-24T16:57:34;4.07;;;2.25;;
73911;SDS011;62248;49.958;8.448;2023-04-24T17:00:01;3.60;;;1.80;;
73911;SDS011;62248;49.958;8.448;2023-04-24T17:02:28;3.88;;;1.92;;
73911;SDS011;62248;49.958;8.448;2023-04-24T17:04:55;4.80;;;1.92;;
73911;SDS011;62248;49.958;8.448;2023-04-24T17:07:22;4.45;;;2.30;;
73911;SDS011;62248;49.958;8.448;2023-04-24T17:09:48;4.25;;;1.95;;
73911;SDS011;62248;49.958;8.448;2023-04-24T17:12:14;4.90;;;1.92;;
73911;SDS011;62248;49.958;8.448;2023-04-24T17:14:42;3.38;;;1.63;;
73911;SDS011;62248;49.958;8.448;2023-04-24T17:17:09;4.95;;;2.03;;
73911;SDS011;62248;49.958;8.448;2023-04-24T17:19:35;3.70;;;1.95;;
73911;SDS011;62248;49.958;8.448;2023-04-24T17:22:01;3.97;;;2.10;;
73911;SDS011;62248;49.958;8.448;2023-04-24T17:24:28;6.40;;;1.90;;
73911;SDS011;62248;49.958;8.448;2023-04-24T17:26:54;4.57;;;1.83;;
73911;SDS011;62248;49.958;8.448;2023-04-24T17:29:22;7.38;;;2.25;;
73911;SDS011;62248;49.958;8.448;2023-04-24T17:31:48;4.55;;;2.00;;
73911;SDS011;62248;49.958;8.448;2023-04-24T17:34:14;5.03;;;2.00;;
73911;SDS011;62248;49.958;8.448;2023-04-24T17:36:41;4.40;;;2.38;;
73911;SDS011;62248;49.958;8.448;2023-04-24T17:39:07;5.13;;;2.15;;
73911;SDS011;62248;49.958;8.448;2023-04-24T17:41:34;4.70;;;1.90;;
73911;SDS011;62248;49.958;8.448;2023-04-24T17:44:01;4.15;;;1.60;;
73911;SDS011;62248;49.958;8.448;2023-04-24T17:46:27;3.85;;;1.90;;
73911;SDS011;62248;49.958;8.448;2023-04-24T17:48:53;6.50;;;1.90;;
73911;SDS011;62248;49.958;8.448;2023-04-24T17:51:20;4.47;;;1.83;;
73911;SDS011;62248;49.958;8.448;2023-04-24T17:53:46;3.40;;;1.70;;
73911;SDS011;62248;49.958;8.448;2023-04-24T17:56:12;4.55;;;1.83;;
73911;SDS011;62248;49.958;8.448;2023-04-24T17:58:39;5.10;;;2.10;;
73911;SDS011;62248;49.958;8.448;2023-04-24T18:01:06;5.25;;;1.80;;
73911;SDS011;62248;49.958;8.448;2023-04-24T18:03:32;2.92;;;1.60;;
73911;SDS011;62248;49.958;8.448;2023-04-24T18:05:58;4.75;;;1.67;;
73911;SDS011;62248;49.958;8.448;2023-04-24T18:08:24;3.35;;;1.85;;
73911;SDS011;62248;49.958;8.448;2023-04-24T18:10:51;5.82;;;1.67;;
73911;SDS011;62248;49.958;8.448;2023-04-24T18:13:17;4.07;;;1.92;;
73911;SDS011;62248;49.958;8.448;2023-04-24T18:15:43;5.75;;;2.25;;
73911;SDS011;62248;49.958;8.448;2023-04-24T18:18:10;4.35;;;1.77;;
73911;SDS011;62248;49.958;8.448;2023-04-24T18:20:36;3.05;;;1.67;;
73911;SDS011;62248;49.958;8.448;2023-04-24T18:23:03;5.03;;;1.98;;
73911;SDS011;62248;49.958;8.448;2023-04-24T18:25:30;3.85;;;1.70;;
73911;SDS011;62248;49.958;8.448;2023-04-24T18:27:56;3.47;;;1.70;;
73911;SDS011;62248;49.958;8.448;2023-04-24T18:30:23;3.03;;;1.40;;
73911;SDS011;62248;49.958;8.448;2023-04-24T18:32:50;6.75;;;1.75;;
73911;SDS011;62248;49.958;8.448;2023-04-24T18:35:17;4.30;;;1.85;;
73911;SDS011;62248;49.958;8.448;2023-04-24T18:37:44;3.97;;;1.70;;
73911;SDS011;62248;49.958;8.448;2023-04-24T18:40:13;4.22;;;1.60;;
73911;SDS011;62248;49.958;8.448;2023-04-24T18:42:40;3.55;;;1.65;;
73911;SDS011;62248;49.958;8.448;2023-04-24T18:45:07;3.38;;;1.60;;
73911;SDS011;62248;49.958;8.448;2023-04-24T18:47:34;3.97;;;1.52;;
73911;SDS011;62248;49.958;8.448;2023-04-24T18:50:01;4.38;;;1.85;;
73911;SDS011;62248;49.958;8.448;2023-04-24T18:52:28;3.38;;;1.83;;
73911;SDS011;62248;49.958;8.448;2023-04-24T18:54:55;4.32;;;1.60;;
73911;SDS011;62248;49.958;8.448;2023-04-24T18:57:27;4.63;;;1.60;;
73911;SDS011;62248;49.958;8.448;2023-04-24T18:59:54;3.10;;;1.50;;
73911;SDS011;62248;49.958;8.448;2023-04-24T19:02:20;3.60;;;1.65;;
73911;SDS011;62248;49.958;8.448;2023-04-24T19:04:47;3.42;;;1.88;;
73911;SDS011;62248;49.958;8.448;2023-04-24T19:07:13;4.72;;;1.80;;
73911;SDS011;62248;49.958;8.448;2023-04-24T19:09:44;4.28;;;1.63;;
73911;SDS011;62248;49.958;8.448;2023-04-24T19:12:10;3.90;;;1.70;;
73911;SDS011;62248;49.958;8.448;2023-04-24T19:14:37;4.03;;;1.77;;
73911;SDS011;62248;49.958;8.448;2023-04-24T19:17:05;3.45;;;1.67;;
73911;SDS011;62248;49.958;8.448;2023-04-24T19:19:34;3.72;;;1.65;;
73911;SDS011;62248;49.958;8.448;2023-04-24T19:22:01;3.15;;;1.65;;
73911;SDS011;62248;49.958;8.448;2023-04-24T19:24:28;4.13;;;1.48;;
73911;SDS011;62248;49.958;8.448;2023-04-24T19:26:57;3.10;;;1.48;;
73911;SDS011;62248;49.958;8.448;2023-04-24T19:29:23;4.40;;;1.50;;
73911;SDS011;62248;49.958;8.448;2023-04-24T19:31:50;3.60;;;1.45;;
73911;SDS011;62248;49.958;8.448;2023-04-24T19:34:18;2.95;;;1.55;;
73911;SDS011;62248;49.958;8.448;2023-04-24T19:36:45;2.58;;;1.48;;
73911;SDS011;62248;49.958;8.448;2023-04-24T19:39:11;2.85;;;1.55;;
73911;SDS011;62248;49.958;8.448;2023-04-24T19:41:37;2.88;;;1.42;;
73911;SDS011;62248;49.958;8.448;2023-04-24T19:44:04;3.13;;;1.55;;
73911;SDS011;62248;49.958;8.448;2023-04-24T19:46:32;2.70;;;1.30;;
73911;SDS011;62248;49.958;8.448;2023-04-24T19:48:58;5.13;;;1.48;;
73911;SDS011;62248;49.958;8.448;2023-04-24T19:51:26;3.40;;;1.40;;
73911;SDS011;62248;49.958;8.448;2023-04-24T19:53:59;3.83;;;1.73;;
73911;SDS011;62248;49.958;8.448;2023-04-24T19:56:33;2.95;;;1.42;;
73911;SDS011;62248;49.958;8.448;2023-04-24T19:59:00;4.28;;;1.48;;
73911;SDS011;62248;49.958;8.448;2023-04-24T20:01:29;3.17;;;1.30;;
73911;SDS011;62248;49.958;8.448;2023-04-24T20:03:56;5.38;;;1.50;;
73911;SDS011;62248;49.958;8.448;2023-04-24T20:06:26;3.25;;;1.38;;
73911;SDS011;62248;49.958;8.448;2023-04-24T20:08:56;3.55;;;1.30;;
73911;SDS011;62248;49.958;8.448;2023-04-24T20:11:22;3.13;;;1.33;;
73911;SDS011;62248;49.958;8.448;2023-04-24T20:13:49;3.95;;;1.70;;
73911;SDS011;62248;49.958;8.448;2023-04-24T20:16:20;4.03;;;1.52;;
73911;SDS011;62248;49.958;8.448;2023-04-24T20:18:48;4.38;;;1.58;;
73911;SDS011;62248;49.958;8.448;2023-04-24T20:21:14;4.13;;;1.50;;
73911;SDS011;62248;49.958;8.448;2023-04-24T20:23:41;3.38;;;1.33;;
73911;SDS011;62248;49.958;8.448;2023-04-24T20:26:08;3.72;;;1.30;;
73911;SDS011;62248;49.958;8.448;2023-04-24T20:28:35;4.15;;;1.50;;
73911;SDS011;62248;49.958;8.448;2023-04-24T20:31:03;3.25;;;1.30;;
73911;SDS011;62248;49.958;8.448;2023-04-24T20:33:32;3.13;;;1.38;;
73911;SDS011;62248;49.958;8.448;2023-04-24T20:36:02;3.30;;;1.33;;
73911;SDS011;62248;49.958;8.448;2023-04-24T20:38:30;3.90;;;1.33;;
73911;SDS011;62248;49.958;8.448;2023-04-24T20:41:00;2.50;;;1.20;;
73911;SDS011;62248;49.958;8.448;2023-04-24T20:43:31;3.33;;;1.20;;
73911;SDS011;62248;49.958;8.448;2023-04-24T20:45:57;7.82;;;1.50;;
73911;SDS011;62248;49.958;8.448;2023-04-24T20:48:25;11.10;;;1.63;;
73911;SDS011;62248;49.958;8.448;2023-04-24T20:50:54;4.78;;;1.50;;
73911;SDS011;62248;49.958;8.448;2023-04-24T20:53:20;5.10;;;1.40;;
73911;SDS011;62248;49.958;8.448;2023-04-24T20:55:47;10.70;;;1.50;;
73911;SDS011;62248;49.958;8.448;2023-04-24T20:58:14;4.13;;;1.30;;
73911;SDS011;62248;49.958;8.448;2023-04-24T21:00:42;6.03;;;1.80;;
73911;SDS011;62248;49.958;8.448;2023-04-24T21:03:09;4.45;;;1.40;;
73911;SDS011;62248;49.958;8.448;2023-04-24T21:05:35;4.20;;;1.30;;
73911;SDS011;62248;49.958;8.448;2023-04-24T21:08:01;4.55;;;1.50;;
73911;SDS011;62248;49.958;8.448;2023-04-24T21:10:28;3.97;;;1.42;;
73911;SDS011;62248;49.958;8.448;2023-04-24T21:12:54;3.80;;;1.30;;
73911;SDS011;62248;49.958;8.448;2023-04-24T21:15:20;3.92;;;1.55;;
73911;SDS011;62248;49.958;8.448;2023-04-24T21:17:46;3.83;;;1.38;;
73911;SDS011;62248;49.958;8.448;2023-04-24T21:20:13;4.53;;;1.30;;
73911;SDS011;62248;49.958;8.448;2023-04-24T21:22:39;4.38;;;1.42;;
73911;SDS011;62248;49.958;8.448;2023-04-24T21:25:06;3.55;;;1.30;;
73911;SDS011;62248;49.958;8.448;2023-04-24T21:27:32;3.13;;;1.08;;
73911;SDS011;62248;49.958;8.448;2023-04-24T21:29:59;2.55;;;1.33;;
73911;SDS011;62248;49.958;8.448;2023-04-24T21:32:26;2.35;;;1.05;;
73911;SDS011;62248;49.958;8.448;2023-04-24T21:34:52;3.97;;;1.40;;
73911;SDS011;62248;49.958;8.448;2023-04-24T21:37:18;3.97;;;1.35;;
73911;SDS011;62248;49.958;8.448;2023-04-24T21:39:45;3.20;;;1.30;;
73911;SDS011;62248;49.958;8.448;2023-04-24T21:42:11;3.58;;;1.50;;
73911;SDS011;62248;49.958;8.448;2023-04-24T21:44:37;2.45;;;1.30;;
73911;SDS011;62248;49.958;8.448;2023-04-24T21:47:04;2.05;;;1.00;;
73911;SDS011;62248;49.958;8.448;2023-04-24T21:49:30;3.97;;;1.45;;
73911;SDS011;62248;49.958;8.448;2023-04-24T21:51:56;3.25;;;1.25;;
73911;SDS011;62248;49.958;8.448;2023-04-24T21:54:23;2.15;;;1.10;;
73911;SDS011;62248;49.958;8.448;2023-04-24T21:56:49;3.00;;;1.10;;
73911;SDS011;62248;49.958;8.448;2023-04-24T21:59:15;3.30;;;1.13;;
73911;SDS011;62248;49.958;8.448;2023-04-24T22:01:41;3.60;;;1.30;;
73911;SDS011;62248;49.958;8.448;2023-04-24T22:04:08;4.32;;;1.27;;
73911;SDS011;62248;49.958;8.448;2023-04-24T22:06:35;1.88;;;1.13;;
73911;SDS011;62248;49.958;8.448;2023-04-24T22:09:02;2.33;;;1.13;;
73911;SDS011;62248;49.958;8.448;2023-04-24T22:11:30;1.88;;;1.00;;
73911;SDS011;62248;49.958;8.448;2023-04-24T22:13:56;2.58;;;1.20;;
73911;SDS011;62248;49.958;8.448;2023-04-24T22:16:22;3.45;;;1.40;;
73911;SDS011;62248;49.958;8.448;2023-04-24T22:18:49;3.35;;;1.13;;
73911;SDS011;62248;49.958;8.448;2023-04-24T22:21:19;2.88;;;1.30;;
73911;SDS011;62248;49.958;8.448;2023-04-24T22:23:46;2.40;;;1.23;;
73911;SDS011;62248;49.958;8.448;2023-04-24T22:26:13;2.55;;;1.23;;
73911;SDS011;62248;49.958;8.448;2023-04-24T22:28:39;2.45;;;1.15;;
73911;SDS011;62248;49.958;8.448;2023-04-24T22:31:05;1.65;;;0.82;;
73911;SDS011;62248;49.958;8.448;2023-04-24T22:33:31;3.05;;;1.42;;
73911;SDS011;62248;49.958;8.448;2023-04-24T22:35:58;2.30;;;1.10;;
73911;SDS011;62248;49.958;8.448;2023-04-24T22:38:25;2.78;;;1.00;;
73911;SDS011;62248;49.958;8.448;2023-04-24T22:40:51;2.42;;;1.20;;
73911;SDS011;62248;49.958;8.448;2023-04-24T22:43:18;2.08;;;1.00;;
73911;SDS011;62248;49.958;8.448;2023-04-24T22:45:44;2.83;;;1.23;;
73911;SDS011;62248;49.958;8.448;2023-04-24T22:48:10;3.15;;;1.08;;
73911;SDS011;62248;49.958;8.448;2023-04-24T22:50:37;3.40;;;1.20;;
73911;SDS011;62248;49.958;8.448;2023-04-24T22:53:03;2.40;;;1.00;;
73911;SDS011;62248;49.958;8.448;2023-04-24T22:55:29;2.40;;;1.15;;
73911;SDS011;62248;49.958;8.448;2023-04-24T22:57:55;2.05;;;1.05;;
73911;SDS011;62248;49.958;8.448;2023-04-24T23:00:21;2.53;;;1.30;;
73911;SDS011;62248;49.958;8.448;2023-04-24T23:02:48;3.28;;;1.05;;
73911;SDS011;62248;49.958;8.448;2023-04-24T23:05:14;3.08;;;1.10;;
73911;SDS011;62248;49.958;8.448;2023-04-24T23:07:40;2.65;;;1.10;;
73911;SDS011;62248;49.958;8.448;2023-04-24T23:10:07;2.38;;;0.80;;
73911;SDS011;62248;49.958;8.448;2023-04-24T23:12:33;2.05;;;0.93;;
73911;SDS011;62248;49.958;8.448;2023-04-24T23:14:59;2.55;;;1.20;;
73911;SDS011;62248;49.958;8.448;2023-04-24T23:17:26;2.65;;;1.27;;
73911;SDS011;62248;49.958;8.448;2023-04-24T23:19:52;2.55;;;1.20;;
73911;SDS011;62248;49.958;8.448;2023-04-24T23:22:18;2.08;;;0.80;;
73911;SDS011;62248;49.958;8.448;2023-04-24T23:24:44;2.08;;;1.00;;
73911;SDS011;62248;49.958;8.448;2023-04-24T23:27:11;2.85;;;1.15;;
73911;SDS011;62248;49.958;8.448;2023-04-24T23:29:37;2.22;;;1.20;;
73911;SDS011;62248;49.958;8.448;2023-04-24T23:32:03;2.60;;;1.02;;
73911;SDS011;62248;49.958;8.448;2023-04-24T23:34:30;1.85;;;0.90;;
73911;SDS011;62248;49.958;8.448;2023-04-24T23:36:58;2.78;;;1.02;;
73911;SDS011;62248;49.958;8.448;2023-04-24T23:39:25;2.53;;;0.98;;
73911;SDS011;62248;49.958;8.448;2023-04-24T23:41:51;2.28;;;0.90;;
73911;SDS011;62248;49.958;8.448;2023-04-24T23:44:17;2.10;;;1.10;;
73911;SDS011;62248;49.958;8.448;2023-04-24T23:46:44;1.77;;;0.93;;
73911;SDS011;62248;49.958;8.448;2023-04-24T23:49:10;1.90;;;1.00;;
73911;SDS011;62248;49.958;8.448;2023-04-24T23:51:36;1.90;;;0.88;;
73911;SDS011;62248;49.958;8.448;2023-04-24T23:54:02;2.22;;;1.15;;
73911;SDS011;62248;49.958;8.448;2023-04-24T23:56:29;1.88;;;0.98;;
73911;SDS011;62248;49.958;8.448;2023-04-24T23:58:55;1.98;;;1.00;;
